Time;durP1;ratioP1;P1;durP2;ratioP2;P2;SDS_P1;SDS_P2;PMS_P1;PMS_P2;Temp;Humidity;BMP_temperature;BMP_pressure;BME280_temperature;BME280_humidity;BME280_pressure;Samples;Min_cycle;Max_cycle;Signal;HPM_P1;HPM_P2
2021/04/19 00:01:14;;;;;;;25.27;15.78;;;;;;;5.96;92.48;99967.61;1764726;79;21146;-49
2021/04/19 00:03:42;;;;;;;24.30;15.65;;;;;;;5.95;92.90;99968.53;1764996;80;21381;-50
2021/04/19 00:09:09;;;;;;;23.83;15.45;;;;;;;6.00;93.30;99963.93;1794726;78;22755;-50
2021/04/19 00:11:39;;;;;;;16.67;12.47;;;;;;;5.96;93.51;99965.80;1700922;83;20951;-48
2021/04/19 00:14:07;;;;;;;17.70;12.05;;;;;;;5.96;93.67;99963.13;1722129;82;21364;-50
2021/04/19 00:16:35;;;;;;;19.80;13.45;;;;;;;5.95;93.74;99953.81;1721844;82;21047;-49
2021/04/19 00:19:04;;;;;;;23.55;12.60;;;;;;;5.96;93.89;99948.87;1721851;82;21007;-50
2021/04/19 00:21:32;;;;;;;16.35;11.53;;;;;;;5.98;93.98;99955.95;1722509;83;21560;-50
2021/04/19 00:24:01;;;;;;;17.90;13.62;;;;;;;5.99;94.11;99948.80;1722107;83;21027;-50
2021/04/19 00:26:29;;;;;;;20.90;14.23;;;;;;;6.00;94.18;99941.17;1722005;82;21436;-49
2021/04/19 00:28:59;;;;;;;20.25;13.48;;;;;;;6.01;94.12;99945.60;1721934;82;21027;-51
2021/04/19 00:31:27;;;;;;;18.05;12.70;;;;;;;6.01;94.11;99944.27;1722185;82;21007;-50
2021/04/19 00:33:55;;;;;;;15.83;11.48;;;;;;;6.02;94.09;99943.37;1722168;82;21547;-48
2021/04/19 00:36:25;;;;;;;19.10;12.68;;;;;;;6.02;94.08;99936.67;1721737;83;21138;-47
2021/04/19 00:38:54;;;;;;;19.70;12.18;;;;;;;6.02;94.05;99929.98;1722326;82;21398;-47
2021/04/19 00:41:22;;;;;;;21.73;14.20;;;;;;;6.01;93.88;99938.91;1720519;82;21035;-47
2021/04/19 00:43:50;;;;;;;23.62;15.83;;;;;;;6.02;93.89;99938.02;1720718;82;21159;-47
2021/04/19 00:46:19;;;;;;;25.02;16.60;;;;;;;5.99;93.85;99938.09;1721590;82;21159;-48
2021/04/19 00:48:47;;;;;;;22.35;14.95;;;;;;;5.99;93.98;99940.77;1721825;83;20984;-46
2021/04/19 00:51:15;;;;;;;20.27;13.75;;;;;;;6.01;94.20;99937.56;1713194;82;21356;-48
2021/04/19 00:53:43;;;;;;;17.73;13.18;;;;;;;6.00;94.15;99931.34;1713232;82;21153;-48
2021/04/19 00:56:12;;;;;;;20.50;12.95;;;;;;;5.98;94.25;99922.95;1721395;82;21023;-49
2021/04/19 00:58:41;;;;;;;19.42;14.30;;;;;;;5.97;94.32;99934.59;1686937;83;21134;-47
2021/04/19 01:01:09;;;;;;;20.82;14.35;;;;;;;5.95;94.29;99928.38;1722114;82;21560;-47
2021/04/19 01:03:39;;;;;;;21.48;14.18;;;;;;;5.96;94.34;99939.03;1721374;82;22409;-48
2021/04/19 01:06:07;;;;;;;21.20;13.83;;;;;;;5.94;94.37;99929.30;1721467;82;21564;-49
2021/04/19 01:08:35;;;;;;;22.85;15.85;;;;;;;5.92;94.31;99925.81;1720449;82;21000;-48
2021/04/19 01:11:04;;;;;;;19.90;14.05;;;;;;;5.93;94.38;99926.22;1719384;82;21146;-48
2021/04/19 01:13:32;;;;;;;22.30;14.00;;;;;;;5.93;94.34;99919.53;1719947;83;21162;-54
2021/04/19 01:16:02;;;;;;;23.70;16.30;;;;;;;5.93;94.37;99924.88;1718919;82;21217;-54
2021/04/19 01:18:30;;;;;;;26.23;18.10;;;;;;;5.91;94.33;99921.31;1717647;82;21579;-54
2021/04/19 01:20:58;;;;;;;23.98;17.10;;;;;;;5.90;94.34;99920.91;1718788;82;21189;-55
2021/04/19 01:23:27;;;;;;;24.77;17.55;;;;;;;5.85;94.32;99916.14;1718334;82;21023;-54
2021/04/19 01:25:55;;;;;;;18.90;12.18;;;;;;;5.83;94.61;99917.53;1717244;82;21897;-53
2021/04/19 01:28:25;;;;;;;19.02;13.80;;;;;;;5.85;94.87;99917.48;1713598;82;21409;-51
2021/04/19 01:30:53;;;;;;;20.23;13.72;;;;;;;5.85;94.88;99912.13;1689103;84;21038;-53
2021/04/19 01:33:22;;;;;;;18.62;13.88;;;;;;;5.88;94.99;99918.75;1719113;83;21086;-52
2021/04/19 01:35:51;;;;;;;21.12;14.87;;;;;;;5.88;94.86;99921.42;1690758;83;21569;-54
2021/04/19 01:38:23;;;;;;;25.30;16.07;;;;;;;5.88;94.82;99916.07;1719764;82;21113;-53
2021/04/19 01:40:58;;;;;;;28.25;19.15;;;;;;;5.89;94.75;99912.47;1836864;76;23396;-52
2021/04/19 01:43:27;;;;;;;28.65;18.90;;;;;;;5.82;94.84;99912.23;1768749;78;21154;-53
2021/04/19 01:45:59;;;;;;;31.73;18.85;;;;;;;5.77;94.72;99913.23;1777979;78;22230;-55
2021/04/19 01:48:27;;;;;;;27.00;18.80;;;;;;;5.73;94.84;99915.57;1769253;78;21594;-53
2021/04/19 01:50:56;;;;;;;28.20;18.05;;;;;;;5.71;95.05;99918.77;1772945;78;21010;-54
2021/04/19 01:53:25;;;;;;;27.50;18.10;;;;;;;5.68;95.07;99913.48;1760677;79;20974;-53
2021/04/19 01:55:52;;;;;;;29.48;19.23;;;;;;;5.63;95.11;99914.06;1769475;78;20979;-53
2021/04/19 01:58:24;;;;;;;35.63;20.23;;;;;;;5.58;95.27;99910.64;1769601;78;21534;-55
2021/04/19 02:00:58;;;;;;;27.10;19.12;;;;;;;5.57;95.51;99912.91;1768825;78;20967;-55
2021/04/19 02:04:00;;;;;;;31.02;19.67;;;;;;;5.54;95.61;99914.34;1770891;78;20943;-55
2021/04/19 02:06:53;;;;;;;34.03;20.85;;;;;;;5.55;95.96;99909.87;1770212;78;21176;-56
2021/04/19 02:09:44;;;;;;;39.33;21.50;;;;;;;5.56;96.13;99913.83;1774743;78;21188;-54
2021/04/19 02:12:46;;;;;;;28.62;18.98;;;;;;;5.64;96.29;99914.94;1782215;78;22724;-53
2021/04/19 02:15:38;;;;;;;26.05;18.70;;;;;;;5.58;96.23;99915.98;1790207;79;21061;-55
2021/04/19 02:18:18;;;;;;;38.10;21.77;;;;;;;5.59;96.14;99919.54;1756919;79;22810;-55
2021/04/19 02:20:56;;;;;;;32.63;22.98;;;;;;;5.55;96.04;99920.11;1798059;79;21014;-55
2021/04/19 02:23:34;;;;;;;29.77;20.48;;;;;;;5.52;96.05;99913.02;1786939;79;20989;-56
2021/04/19 02:26:33;;;;;;;30.90;21.37;;;;;;;5.50;96.20;99911.33;1751967;81;20994;-54
2021/04/19 02:29:18;;;;;;;29.45;20.65;;;;;;;5.53;96.44;99909.89;1755921;81;21880;-54
2021/04/19 02:31:59;;;;;;;29.77;20.55;;;;;;;5.48;96.07;99914.48;1757709;81;21203;-48
2021/04/19 02:34:31;;;;;;;30.82;21.30;;;;;;;5.47;96.40;99917.62;1751154;81;21525;-48
2021/04/19 02:36:59;;;;;;;29.35;19.25;;;;;;;5.47;96.50;99920.75;1722584;81;21046;-48
2021/04/19 02:39:32;;;;;;;29.55;19.87;;;;;;;5.48;96.52;99914.48;1716670;81;21176;-48
2021/04/19 02:42:01;;;;;;;26.75;17.85;;;;;;;5.49;96.58;99914.46;1663265;82;21167;-48
2021/04/19 02:44:29;;;;;;;28.57;17.73;;;;;;;5.51;96.57;99922.44;1712527;80;21318;-47
2021/04/19 02:47:07;;;;;;;23.20;16.67;;;;;;;5.55;96.51;99916.09;1822945;77;22724;-48
2021/04/19 02:49:37;;;;;;;26.55;19.23;;;;;;;5.49;96.44;99913.59;1789139;78;21098;-46
2021/04/19 02:52:06;;;;;;;27.90;19.52;;;;;;;5.45;96.22;99915.92;1784017;78;21794;-49
2021/04/19 02:54:35;;;;;;;26.68;18.10;;;;;;;5.40;96.47;99911.16;1789087;78;21574;-48
2021/04/19 02:57:03;;;;;;;23.75;15.78;;;;;;;5.40;96.75;99906.67;1783280;78;21596;-48
2021/04/19 02:59:31;;;;;;;28.17;17.75;;;;;;;5.41;97.01;99909.77;1788831;78;21005;-48
2021/04/19 03:02:06;;;;;;;23.45;14.90;;;;;;;5.43;97.07;99914.63;1789025;78;20977;-47
2021/04/19 03:04:38;;;;;;;26.60;17.23;;;;;;;5.43;96.93;99909.71;1789877;78;22001;-48
2021/04/19 03:07:13;;;;;;;27.67;17.45;;;;;;;5.38;96.89;99913.88;1790736;78;21562;-47
2021/04/19 03:09:46;;;;;;;26.27;16.90;;;;;;;5.31;96.84;99914.06;1793149;78;20993;-49
2021/04/19 03:12:15;;;;;;;26.55;18.00;;;;;;;5.26;97.11;99911.50;1794286;78;20958;-49
2021/04/19 03:14:50;;;;;;;26.30;17.13;;;;;;;5.22;97.67;99908.05;1790098;78;21537;-50
2021/04/19 03:17:21;;;;;;;27.00;18.77;;;;;;;5.23;97.94;99912.94;1782516;78;22088;-49
2021/04/19 03:20:15;;;;;;;23.95;18.17;;;;;;;5.22;98.12;99916.07;1803272;78;21724;-47
2021/04/19 03:22:47;;;;;;;24.65;17.35;;;;;;;5.23;98.27;99916.48;1789287;78;21005;-47
2021/04/19 03:25:16;;;;;;;24.40;16.00;;;;;;;5.28;98.38;99919.50;1781208;78;21323;-48
2021/04/19 03:27:47;;;;;;;26.10;16.57;;;;;;;5.29;98.28;99912.77;1791443;78;21660;-48
2021/04/19 03:30:16;;;;;;;26.45;17.37;;;;;;;5.33;98.36;99917.59;1795715;78;21438;-48
2021/04/19 03:32:50;;;;;;;26.80;17.25;;;;;;;5.38;98.36;99923.66;1761475;78;21022;-48
2021/04/19 03:35:24;;;;;;;25.77;14.85;;;;;;;5.40;98.12;99917.84;1793612;78;21235;-48
2021/04/19 03:37:53;;;;;;;24.65;16.27;;;;;;;5.41;97.84;99922.26;1785046;78;21493;-49
2021/04/19 03:43:14;;;;;;;19.62;15.20;;;;;;;5.41;97.87;99907.55;1758162;78;27905;-48
2021/04/19 03:45:58;;;;;;;21.65;16.80;;;;;;;5.49;98.08;99902.89;1856903;74;27833;-48
2021/04/19 03:48:26;;;;;;;18.73;14.50;;;;;;;5.46;97.83;99910.98;1817512;78;20948;-49
2021/04/19 03:51:00;;;;;;;22.20;15.65;;;;;;;5.47;97.95;99914.94;1809527;78;21372;-50
2021/04/19 03:53:28;;;;;;;20.35;15.55;;;;;;;5.49;98.15;99914.46;1803464;78;21009;-49
2021/04/19 03:55:59;;;;;;;23.77;14.80;;;;;;;5.52;98.14;99916.16;1806231;78;21032;-47
2021/04/19 03:58:30;;;;;;;22.25;14.35;;;;;;;5.55;98.20;99913.42;1795388;78;20993;-48
2021/04/19 04:00:59;;;;;;;22.67;15.20;;;;;;;5.57;98.02;99911.56;1799152;79;20981;-48
2021/04/19 04:03:32;;;;;;;24.60;14.85;;;;;;;5.58;97.81;99913.31;1795540;78;22280;-46
2021/04/19 04:06:11;;;;;;;26.17;15.65;;;;;;;5.59;97.83;99907.03;1811532;77;22843;-48
2021/04/19 04:08:40;;;;;;;25.48;16.75;;;;;;;5.52;97.80;99905.46;1750132;80;20973;-47
2021/04/19 04:11:10;;;;;;;23.90;16.02;;;;;;;5.49;97.81;99914.46;1758561;80;21379;-49
2021/04/19 04:13:38;;;;;;;20.95;14.83;;;;;;;5.53;98.15;99913.90;1754865;80;21040;-49
2021/04/19 04:16:07;;;;;;;22.52;17.23;;;;;;;5.58;98.13;99915.11;1757904;80;21387;-48
2021/04/19 04:18:37;;;;;;;20.88;15.95;;;;;;;5.62;98.05;99917.67;1760996;80;21614;-49
2021/04/19 04:21:07;;;;;;;27.93;16.05;;;;;;;5.64;97.97;99910.47;1758561;80;21689;-49
2021/04/19 04:23:36;;;;;;;25.60;15.65;;;;;;;5.66;97.82;99916.67;1729428;80;22272;-49
2021/04/19 04:26:04;;;;;;;27.25;17.92;;;;;;;5.68;97.59;99919.30;1755089;80;21650;-46
2021/04/19 04:28:34;;;;;;;24.00;17.65;;;;;;;5.68;97.60;99924.19;1732612;80;21616;-48
2021/04/19 04:31:07;;;;;;;30.65;17.42;;;;;;;5.69;97.53;99928.61;1759827;80;20997;-48
2021/04/19 04:33:36;;;;;;;28.60;18.02;;;;;;;5.73;97.45;99923.59;1760299;80;21572;-48
2021/04/19 04:36:07;;;;;;;28.10;16.67;;;;;;;5.78;97.42;99927.02;1758857;80;22218;-48
2021/04/19 04:38:38;;;;;;;28.12;17.00;;;;;;;5.81;97.09;99929.22;1765200;80;21024;-49
2021/04/19 04:41:09;;;;;;;23.55;15.93;;;;;;;5.82;96.95;99928.30;1696162;83;21136;-47
2021/04/19 04:43:37;;;;;;;27.42;16.75;;;;;;;5.83;96.99;99926.91;1757339;80;21056;-49
2021/04/19 04:46:17;;;;;;;25.32;16.35;;;;;;;5.86;97.14;99925.49;1757446;80;21103;-50
2021/04/19 04:49:04;;;;;;;19.37;14.63;;;;;;;5.89;97.05;99923.17;1695747;83;22307;-49
2021/04/19 04:51:32;;;;;;;20.85;15.10;;;;;;;5.93;97.12;99914.17;1757543;80;21712;-52
2021/04/19 04:54:09;;;;;;;21.25;14.68;;;;;;;5.99;96.92;99926.04;1759677;80;21064;-50
2021/04/19 04:56:41;;;;;;;17.82;12.93;;;;;;;6.03;96.94;99924.58;1759304;80;21037;-49
2021/04/19 04:59:09;;;;;;;20.05;13.50;;;;;;;6.09;97.07;99918.16;1759779;80;20969;-49
2021/04/19 05:01:38;;;;;;;21.42;14.73;;;;;;;6.16;96.95;99927.76;1762523;80;22298;-48
2021/04/19 05:04:07;;;;;;;17.35;13.60;;;;;;;6.22;96.61;99922.22;1759867;80;21132;-49
2021/04/19 05:06:36;;;;;;;18.40;13.72;;;;;;;6.28;96.45;99919.38;1732697;81;21781;-45
2021/04/19 05:09:09;;;;;;;17.30;13.18;;;;;;;6.35;96.22;99913.83;1732340;81;21178;-47
2021/04/19 05:11:42;;;;;;;20.02;13.15;;;;;;;6.42;96.22;99912.71;1732465;80;21537;-48
2021/04/19 05:14:10;;;;;;;17.35;12.82;;;;;;;6.50;96.05;99916.05;1729363;81;21441;-47
2021/04/19 05:16:38;;;;;;;20.43;13.18;;;;;;;6.59;95.74;99914.86;1730050;81;21049;-47
2021/04/19 05:19:07;;;;;;;19.55;12.33;;;;;;;6.65;95.35;99920.89;1731500;81;21632;-47
2021/04/19 05:21:36;;;;;;;16.65;12.53;;;;;;;6.70;95.06;99918.95;1730631;81;21206;-49
2021/04/19 05:24:04;;;;;;;17.90;12.43;;;;;;;6.78;94.83;99911.55;1728533;81;21865;-47
2021/04/19 05:26:32;;;;;;;17.20;11.75;;;;;;;6.87;94.42;99914.84;1731788;81;21628;-47
2021/04/19 05:29:00;;;;;;;16.97;12.88;;;;;;;6.94;93.77;99915.08;1731156;81;21183;-47
2021/04/19 05:31:28;;;;;;;23.92;16.45;;;;;;;7.02;93.54;99917.03;1731593;80;21559;-46
2021/04/19 05:33:57;;;;;;;18.07;14.03;;;;;;;7.07;93.22;99919.09;1729211;81;21632;-48
2021/04/19 05:36:26;;;;;;;19.52;14.30;;;;;;;7.16;93.10;99913.91;1729975;81;21358;-51
2021/04/19 05:38:54;;;;;;;20.57;15.58;;;;;;;7.22;92.71;99918.59;1731198;81;21372;-49
2021/04/19 05:41:22;;;;;;;22.65;15.58;;;;;;;7.27;92.44;99920.65;1732069;80;21124;-49
2021/04/19 05:43:50;;;;;;;20.37;14.10;;;;;;;7.34;92.32;99912.80;1730171;81;21017;-47
2021/04/19 05:46:18;;;;;;;19.82;13.68;;;;;;;7.40;92.11;99916.20;1728045;81;21020;-49
2021/04/19 05:48:47;;;;;;;19.27;13.68;;;;;;;7.49;91.93;99914.55;1729428;81;21709;-48
2021/04/19 05:51:25;;;;;;;21.95;14.78;;;;;;;7.58;91.05;99914.23;1696362;83;21220;-50
2021/04/19 05:53:55;;;;;;;22.58;15.05;;;;;;;7.65;90.69;99909.05;1670882;83;21207;-48
2021/04/19 05:56:57;;;;;;;19.95;14.25;;;;;;;7.72;90.46;99907.88;1671933;84;21184;-47
2021/04/19 05:59:32;;;;;;;21.75;13.05;;;;;;;7.78;89.81;99910.37;1698591;83;21144;-47
2021/04/19 06:02:09;;;;;;;16.52;12.00;;;;;;;7.88;88.70;99913.13;1794031;76;22673;-48
2021/04/19 06:04:57;;;;;;;18.40;13.48;;;;;;;7.85;88.17;99909.20;1739154;79;21005;-49
2021/04/19 06:07:31;;;;;;;18.27;12.95;;;;;;;7.88;88.28;99906.86;1760301;79;21370;-48
2021/04/19 06:10:16;;;;;;;16.93;12.28;;;;;;;7.98;88.10;99908.27;1810018;77;22837;-49
2021/04/19 06:13:07;;;;;;;14.40;10.53;;;;;;;8.03;87.83;99904.08;1813649;76;22615;-49
2021/04/19 06:15:36;;;;;;;15.50;10.75;;;;;;;8.03;87.86;99902.73;1781541;77;21023;-47
2021/04/19 06:18:04;;;;;;;13.30;10.72;;;;;;;8.08;87.62;99900.75;1758888;79;21194;-49
2021/04/19 06:20:34;;;;;;;18.70;11.63;;;;;;;8.13;87.62;99900.11;1760352;79;21070;-48
2021/04/19 06:23:03;;;;;;;12.43;9.88;;;;;;;8.20;87.47;99904.31;1710857;82;21169;-50
2021/04/19 06:25:31;;;;;;;13.65;10.53;;;;;;;8.26;87.21;99898.73;1672087;80;21018;-51
2021/04/19 06:28:01;;;;;;;13.95;9.90;;;;;;;8.34;87.19;99896.60;1691564;82;21014;-51
2021/04/19 06:30:40;;;;;;;12.28;9.38;;;;;;;8.42;86.41;99902.20;1701448;82;21155;-50
2021/04/19 06:33:04;;;;;;;13.62;8.38;;;;;;;8.43;85.23;99909.32;1698249;82;21121;-51
2021/04/19 06:35:32;;;;;;;14.38;9.65;;;;;;;8.49;85.45;99892.95;1728072;81;20991;-52
2021/04/19 06:38:01;;;;;;;11.48;9.50;;;;;;;8.49;85.45;99892.95;1727209;82;21126;-50
2021/04/19 06:40:29;;;;;;;15.30;9.48;;;;;;;8.62;84.98;99902.27;1726636;82;21518;-51
2021/04/19 06:42:57;;;;;;;13.05;9.03;;;;;;;8.69;85.02;99901.11;1724761;81;21927;-49
2021/04/19 06:45:25;;;;;;;15.38;10.58;;;;;;;8.75;84.85;99892.78;1724756;82;21150;-51
2021/04/19 06:47:53;;;;;;;19.85;11.68;;;;;;;8.80;84.45;99894.82;1692878;83;21943;-52
2021/04/19 06:50:22;;;;;;;13.60;8.90;;;;;;;8.87;84.14;99897.66;1696606;82;21643;-50
2021/04/19 06:52:50;;;;;;;11.85;8.73;;;;;;;8.89;83.46;99899.83;1722610;82;21103;-48
2021/04/19 06:55:19;;;;;;;12.63;9.33;;;;;;;8.90;83.60;99900.23;1703224;82;21550;-50
2021/04/19 06:57:55;;;;;;;13.60;9.33;;;;;;;8.97;83.62;99894.59;1721786;82;21154;-50
2021/04/19 07:00:25;;;;;;;13.95;10.25;;;;;;;9.03;83.53;99887.61;1723164;82;21934;-49
2021/04/19 07:02:59;;;;;;;16.65;9.10;;;;;;;9.10;83.51;99894.00;1727383;81;21210;-51
2021/04/19 07:05:36;;;;;;;12.18;9.40;;;;;;;9.22;83.54;99884.56;1803734;77;22390;-50
2021/04/19 07:08:45;;;;;;;12.07;9.73;;;;;;;9.24;83.61;99893.91;1751998;79;21072;-51
2021/04/19 07:11:26;;;;;;;12.37;10.53;;;;;;;9.38;83.57;99891.03;1742653;77;28011;-52
2021/04/19 07:13:54;;;;;;;13.75;9.78;;;;;;;9.42;83.53;99896.67;1693217;81;20996;-50
2021/04/19 07:16:22;;;;;;;13.45;8.83;;;;;;;9.53;83.32;99894.85;1721208;80;21382;-52
2021/04/19 07:18:52;;;;;;;15.30;9.95;;;;;;;9.67;82.53;99888.88;1721494;80;21057;-51
2021/04/19 07:21:20;;;;;;;14.40;9.05;;;;;;;9.67;82.53;99888.88;1724133;80;21057;-58
2021/04/19 07:23:50;;;;;;;12.33;7.55;;;;;;;9.77;82.66;99887.53;1724347;80;21009;-54
2021/04/19 07:26:18;;;;;;;9.63;7.92;;;;;;;9.86;81.88;99887.13;1720935;80;21070;-54
2021/04/19 07:28:46;;;;;;;11.55;8.00;;;;;;;9.92;80.46;99886.84;1724692;80;21196;-55
2021/04/19 07:31:15;;;;;;;10.82;8.60;;;;;;;9.97;80.43;99879.42;1722541;80;21013;-57
2021/04/19 07:33:44;;;;;;;13.72;8.23;;;;;;;10.09;79.95;99882.50;1726308;80;21560;-53
2021/04/19 07:36:29;;;;;;;11.68;7.65;;;;;;;10.18;79.54;99876.69;1724259;80;20986;-54
2021/04/19 07:38:59;;;;;;;11.63;9.10;;;;;;;10.25;79.11;99871.44;1723267;80;21124;-55
2021/04/19 07:41:56;;;;;;;10.85;8.35;;;;;;;10.35;79.04;99871.88;1725671;80;21693;-55
2021/04/19 07:44:37;;;;;;;13.25;8.58;;;;;;;10.41;78.47;99879.20;1725808;80;21620;-56
2021/04/19 07:47:43;;;;;;;10.65;7.62;;;;;;;10.46;78.39;99869.06;1721719;80;21178;-56
2021/04/19 07:50:22;;;;;;;10.78;7.15;;;;;;;10.52;78.11;99864.33;1722781;80;21533;-56
2021/04/19 07:53:07;;;;;;;9.50;7.45;;;;;;;10.54;77.16;99873.20;1723112;80;20982;-55
2021/04/19 07:55:37;;;;;;;9.68;7.20;;;;;;;10.56;76.67;99864.11;1726667;80;22085;-55
2021/04/19 07:58:10;;;;;;;7.28;6.58;;;;;;;10.56;75.81;99865.94;1724255;80;21152;-56
2021/04/19 08:00:39;;;;;;;10.38;7.55;;;;;;;10.58;75.50;99877.52;1720296;80;21648;-56
2021/04/19 08:03:15;;;;;;;9.90;7.60;;;;;;;10.58;75.42;99874.81;1720271;80;21581;-53
2021/04/19 08:05:52;;;;;;;9.08;7.35;;;;;;;10.58;75.28;99863.55;1722037;80;21160;-56
2021/04/19 08:08:33;;;;;;;11.70;7.60;;;;;;;10.65;75.18;99865.47;1695927;80;21456;-57
2021/04/19 08:11:10;;;;;;;9.40;7.72;;;;;;;10.71;75.08;99871.46;1727463;80;21154;-56
2021/04/19 08:13:39;;;;;;;10.48;8.00;;;;;;;10.72;74.58;99862.41;1727825;80;21132;-55
2021/04/19 08:16:26;;;;;;;7.97;6.47;;;;;;;10.73;74.54;99857.89;1728149;80;21096;-56
2021/04/19 08:19:01;;;;;;;12.53;7.70;;;;;;;10.72;74.62;99860.20;1727651;80;21136;-55
2021/04/19 08:21:30;;;;;;;9.90;7.58;;;;;;;10.79;74.42;99858.94;1727086;80;22293;-55
2021/04/19 08:24:16;;;;;;;11.93;8.15;;;;;;;10.87;74.13;99862.62;1726459;80;21029;-54
2021/04/19 08:26:56;;;;;;;10.65;8.20;;;;;;;11.03;74.10;99851.93;1797245;78;22722;-51
2021/04/19 08:29:45;;;;;;;11.57;7.15;;;;;;;11.05;74.01;99845.97;1786042;79;21524;-52
2021/04/19 08:32:21;;;;;;;11.55;7.65;;;;;;;11.13;73.05;99845.98;1786200;78;21159;-52
2021/04/19 08:34:50;;;;;;;9.43;7.90;;;;;;;11.24;72.51;99845.44;1786984;79;20997;-51
2021/04/19 08:37:23;;;;;;;9.48;6.72;;;;;;;11.32;71.96;99850.42;1784430;79;21564;-51
2021/04/19 08:39:51;;;;;;;9.75;7.17;;;;;;;11.36;71.41;99850.19;1785727;79;20969;-52
2021/04/19 08:42:21;;;;;;;12.25;6.67;;;;;;;11.40;71.10;99840.98;1786158;79;21410;-52
2021/04/19 08:44:54;;;;;;;7.45;6.42;;;;;;;11.48;69.79;99852.25;1786161;79;21852;-52
2021/04/19 08:47:30;;;;;;;8.28;6.20;;;;;;;11.61;69.64;99848.89;1836259;77;23300;-52
2021/04/19 08:50:01;;;;;;;9.75;5.50;;;;;;;11.61;67.98;99843.48;1790120;78;20946;-52
2021/04/19 08:52:29;;;;;;;8.80;6.62;;;;;;;11.64;67.79;99846.91;1753732;80;21372;-52
2021/04/19 08:54:57;;;;;;;8.83;6.47;;;;;;;11.62;67.93;99854.72;1750328;80;21022;-52
2021/04/19 08:57:25;;;;;;;11.22;7.30;;;;;;;11.58;67.75;99851.29;1762949;80;20990;-53
2021/04/19 08:59:53;;;;;;;8.28;6.22;;;;;;;11.50;68.29;99844.95;1753514;80;21014;-53
2021/04/19 09:02:22;;;;;;;8.35;5.92;;;;;;;11.47;69.06;99849.64;1756052;80;20994;-53
2021/04/19 09:05:12;;;;;;;8.25;6.37;;;;;;;11.49;69.20;99848.58;1745123;80;21372;-52
2021/04/19 09:07:43;;;;;;;6.92;5.75;;;;;;;11.51;68.70;99844.48;1749625;80;21578;-51
2021/04/19 09:10:19;;;;;;;8.15;6.08;;;;;;;11.52;67.87;99840.34;1756410;80;20984;-52
2021/04/19 09:12:55;;;;;;;7.55;6.00;;;;;;;11.60;67.02;99846.67;1810924;78;22713;-51
2021/04/19 09:15:32;;;;;;;5.75;5.03;;;;;;;11.62;66.30;99845.26;1797155;79;20954;-54
2021/04/19 09:18:08;;;;;;;8.38;5.70;;;;;;;11.69;64.35;99839.92;1783071;79;21199;-52
2021/04/19 09:20:54;;;;;;;6.75;4.97;;;;;;;11.66;63.76;99839.58;1783533;79;21072;-51
2021/04/19 09:23:30;;;;;;;7.10;5.80;;;;;;;11.70;63.80;99845.70;1786818;79;21719;-52
2021/04/19 09:25:59;;;;;;;8.63;5.60;;;;;;;11.72;63.59;99838.41;1781338;79;20989;-51
2021/04/19 09:28:45;;;;;;;5.65;4.83;;;;;;;11.75;63.54;99836.88;1783878;79;21566;-51
2021/04/19 09:31:13;;;;;;;9.55;5.53;;;;;;;11.77;62.80;99833.61;1783121;79;21273;-52
2021/04/19 09:33:42;;;;;;;9.08;5.55;;;;;;;11.78;60.80;99846.19;1790417;79;21025;-51
2021/04/19 09:36:11;;;;;;;6.12;5.50;;;;;;;11.77;61.01;99841.71;1783128;79;20986;-52
2021/04/19 09:38:48;;;;;;;5.58;5.08;;;;;;;11.78;60.29;99848.89;1783619;79;21114;-51
2021/04/19 09:41:13;;;;;;;5.55;4.92;;;;;;;11.80;60.67;99849.67;1756261;79;21013;-51
2021/04/19 09:43:49;;;;;;;7.45;5.08;;;;;;;11.83;60.73;99836.04;1782895;79;22258;-51
2021/04/19 09:46:23;;;;;;;6.35;5.37;;;;;;;11.89;60.76;99833.00;1782912;79;21157;-52
2021/04/19 09:49:00;;;;;;;7.25;5.60;;;;;;;11.98;60.60;99837.88;1785154;79;21013;-53
2021/04/19 09:51:38;;;;;;;8.85;5.30;;;;;;;12.06;60.58;99841.05;1783183;79;21545;-52
2021/04/19 09:54:18;;;;;;;8.03;6.13;;;;;;;12.20;60.70;99839.44;1802591;75;27864;-52
2021/04/19 09:56:55;;;;;;;7.72;4.95;;;;;;;12.28;60.56;99845.27;1790096;79;20989;-53
2021/04/19 09:59:29;;;;;;;5.80;4.80;;;;;;;12.37;59.24;99842.06;1784261;78;21370;-52
2021/04/19 10:01:59;;;;;;;8.55;5.70;;;;;;;12.43;59.01;99847.12;1784798;79;21577;-53
2021/04/19 10:04:27;;;;;;;13.65;5.95;;;;;;;12.53;58.81;99848.83;1784393;78;20982;-51
2021/04/19 10:07:00;;;;;;;7.47;5.25;;;;;;;12.61;58.41;99848.37;1783890;79;20982;-52
2021/04/19 10:09:29;;;;;;;5.55;4.70;;;;;;;12.63;58.06;99860.88;1754245;79;21552;-53
2021/04/19 10:12:05;;;;;;;6.17;4.75;;;;;;;12.62;58.18;99844.70;1783075;79;21533;-54
2021/04/19 10:14:35;;;;;;;7.80;4.87;;;;;;;12.61;58.29;99844.32;1783996;79;20997;-51
2021/04/19 10:17:14;;;;;;;5.28;4.78;;;;;;;12.59;57.98;99850.70;1783828;79;21175;-51
2021/04/19 10:19:44;;;;;;;13.00;5.12;;;;;;;12.56;58.60;99845.93;1784310;79;20985;-52
2021/04/19 10:22:12;;;;;;;7.20;4.42;;;;;;;12.56;58.69;99849.98;1784194;79;21080;-52
2021/04/19 10:24:54;;;;;;;7.00;4.85;;;;;;;12.57;58.25;99864.80;1783580;78;21426;-51
2021/04/19 10:27:32;;;;;;;5.30;4.28;;;;;;;12.55;57.44;99859.94;1783617;78;21597;-51
2021/04/19 10:30:15;;;;;;;5.35;4.37;;;;;;;12.46;56.87;99856.39;1784340;79;21003;-56
2021/04/19 10:32:51;;;;;;;5.72;5.05;;;;;;;12.39;57.04;99858.19;1805953;78;22559;-55
2021/04/19 10:35:41;;;;;;;5.45;4.42;;;;;;;12.28;57.01;99850.67;1800985;77;21508;-51
2021/04/19 10:38:11;;;;;;;;;;;;;;;12.27;56.57;99851.64;1804866;77;21349;-53
2021/04/19 10:40:39;;;;;;;4.87;4.08;;;;;;;12.26;57.01;99847.20;1800352;78;20210;-53
2021/04/19 10:43:12;;;;;;;5.08;4.58;;;;;;;12.23;57.13;99850.06;1801476;79;21091;-53
2021/04/19 10:45:40;;;;;;;7.50;3.90;;;;;;;12.22;57.55;99848.31;1802739;79;20982;-52
2021/04/19 10:48:22;;;;;;;5.62;4.67;;;;;;;12.23;57.03;99847.36;1802616;79;21309;-52
2021/04/19 10:50:52;;;;;;;5.05;4.10;;;;;;;12.25;57.05;99861.65;1802744;77;21372;-57
2021/04/19 10:53:35;;;;;;;6.12;3.60;;;;;;;12.28;55.82;99846.14;1808136;76;23075;-51
2021/04/19 10:56:05;;;;;;;4.67;3.35;;;;;;;12.27;55.47;99848.45;1766384;77;20982;-52
2021/04/19 10:58:34;;;;;;;5.10;3.67;;;;;;;12.31;54.63;99847.81;1756469;79;22107;-52
2021/04/19 11:01:02;;;;;;;5.45;3.60;;;;;;;12.29;54.47;99844.30;1751398;79;21032;-52
2021/04/19 11:06:09;;;;;;;4.53;3.35;;;;;;;12.41;54.57;99843.64;1785518;78;27999;-52
2021/04/19 11:09:08;;;;;;;3.75;3.30;;;;;;;12.46;53.71;99841.52;1765202;79;20979;-50
2021/04/19 11:11:44;;;;;;;3.27;3.00;;;;;;;12.60;53.16;99839.39;1801391;77;23373;-53
2021/04/19 11:14:29;;;;;;;4.03;3.47;;;;;;;12.64;52.83;99846.87;1781850;79;21530;-52
2021/04/19 11:17:03;;;;;;;3.92;3.17;;;;;;;12.73;53.00;99838.20;1778757;79;21386;-49
2021/04/19 11:19:46;;;;;;;6.70;3.80;;;;;;;12.81;52.90;99832.74;1741165;81;21708;-50
2021/04/19 11:22:25;;;;;;;4.58;3.47;;;;;;;12.92;52.98;99828.05;1781958;79;20990;-51
2021/04/19 11:24:57;;;;;;;5.83;3.85;;;;;;;13.01;52.89;99838.35;1775282;79;21039;-50
2021/04/19 11:27:26;;;;;;;8.03;5.10;;;;;;;13.10;52.38;99829.69;1739831;79;21550;-51
2021/04/19 11:29:54;;;;;;;5.12;4.08;;;;;;;13.17;52.05;99838.80;1783930;79;21202;-53
2021/04/19 11:32:33;;;;;;;4.95;4.17;;;;;;;13.18;50.32;99828.36;1781453;79;21009;-52
2021/04/19 11:35:02;;;;;;;5.75;4.22;;;;;;;13.20;50.29;99830.48;1784635;79;21598;-53
2021/04/19 11:37:38;;;;;;;5.67;4.47;;;;;;;13.21;50.50;99833.56;1784026;79;21562;-51
2021/04/19 11:40:09;;;;;;;7.78;4.75;;;;;;;13.20;50.45;99829.99;1784436;79;21031;-52
2021/04/19 11:42:38;;;;;;;5.17;4.10;;;;;;;13.17;49.94;99834.73;1753283;80;24917;-50
2021/04/19 11:45:07;;;;;;;6.92;4.97;;;;;;;13.10;50.12;99835.11;1783172;79;21155;-51
2021/04/19 11:47:35;;;;;;;5.47;4.30;;;;;;;13.02;50.39;99829.27;1784769;79;21028;-51
2021/04/19 11:50:04;;;;;;;7.15;4.67;;;;;;;12.98;50.67;99835.81;1784653;78;21048;-50
2021/04/19 11:52:34;;;;;;;5.17;4.67;;;;;;;12.89;51.07;99828.25;1783352;79;21538;-51
2021/04/19 11:55:03;;;;;;;7.03;5.05;;;;;;;12.82;52.10;99828.20;1780075;79;21674;-50
2021/04/19 11:57:31;;;;;;;8.58;5.70;;;;;;;12.74;53.00;99821.02;1784971;79;21577;-50
2021/04/19 11:59:59;;;;;;;8.73;5.90;;;;;;;12.70;53.95;99820.80;1779991;79;21660;-50
2021/04/19 12:02:27;;;;;;;6.20;5.60;;;;;;;12.63;54.59;99823.48;1784322;79;21108;-51
2021/04/19 12:04:55;;;;;;;9.15;5.72;;;;;;;12.56;55.12;99821.09;1780194;79;21068;-51